Time;durP1;ratioP1;P1;durP2;ratioP2;P2;SDS_P1;SDS_P2;PMS_P1;PMS_P2;Temp;Humidity;BMP_temperature;BMP_pressure;BME280_temperature;BME280_humidity;BME280_pressure;Samples;Min_cycle;Max_cycle;Signal;HPM_P1;HPM_P2
2024/04/25 00:02:16;;;;;;;11.80;2.83;;;;;;;6.98;100.00;100799.56;5638611;26;20007;-73
2024/04/25 00:04:49;;;;;;;4.68;1.70;;;;;;;6.98;100.00;100797.78;5643004;26;20060;-73
2024/04/25 00:07:22;;;;;;;7.38;2.05;;;;;;;7.05;100.00;100801.63;5637067;26;20007;-73
2024/04/25 00:09:54;;;;;;;6.03;1.80;;;;;;;7.00;100.00;100793.28;5637105;26;20039;-73
2024/04/25 00:12:26;;;;;;;7.97;2.00;;;;;;;6.90;100.00;100765.44;5644187;26;20376;-74
2024/04/25 00:14:57;;;;;;;5.10;1.50;;;;;;;7.01;100.00;100771.53;5637456;26;20012;-73
2024/04/25 00:17:29;;;;;;;4.68;1.10;;;;;;;7.05;100.00;100777.34;5635518;26;20010;-74
2024/04/25 00:20:01;;;;;;;6.72;1.38;;;;;;;7.08;100.00;100777.13;5643806;26;20027;-74
2024/04/25 00:22:33;;;;;;;6.65;1.55;;;;;;;7.10;100.00;100772.66;5648136;26;20019;-73
2024/04/25 00:25:05;;;;;;;6.93;2.05;;;;;;;7.12;100.00;100773.34;5647855;26;20000;-73
2024/04/25 00:27:37;;;;;;;8.75;2.13;;;;;;;7.06;100.00;100769.41;5644028;26;20031;-74
2024/04/25 00:30:09;;;;;;;4.43;1.45;;;;;;;7.04;100.00;100760.88;5638695;26;20031;-75
2024/04/25 00:32:41;;;;;;;7.25;1.80;;;;;;;7.13;100.00;100766.41;5637326;26;20048;-73
2024/04/25 00:35:13;;;;;;;7.00;1.98;;;;;;;7.10;100.00;100764.00;5637364;26;20461;-74
2024/04/25 00:37:45;;;;;;;5.72;1.70;;;;;;;7.06;100.00;100766.00;5640320;26;20080;-74
2024/04/25 00:40:17;;;;;;;7.03;1.55;;;;;;;7.08;100.00;100764.09;5643984;26;20276;-74
2024/04/25 00:42:49;;;;;;;7.95;1.73;;;;;;;7.07;100.00;100760.66;5642101;26;20027;-74
2024/04/25 00:45:21;;;;;;;5.38;1.40;;;;;;;7.01;100.00;100758.50;5638872;26;20399;-74
2024/04/25 00:47:53;;;;;;;6.85;2.00;;;;;;;7.01;100.00;100763.72;5637459;26;20440;-74
2024/04/25 00:50:25;;;;;;;4.60;1.65;;;;;;;6.94;100.00;100752.06;5638775;26;20276;-73
2024/04/25 00:52:59;;;;;;;5.83;1.43;;;;;;;6.97;100.00;100751.84;5644271;26;20010;-74
2024/04/25 00:55:31;;;;;;;5.05;1.35;;;;;;;6.92;100.00;100748.72;5636320;26;20036;-73
2024/04/25 00:58:04;;;;;;;5.95;1.70;;;;;;;6.94;100.00;100752.06;5642378;26;20018;-73
2024/04/25 01:00:37;;;;;;;4.90;1.48;;;;;;;6.98;100.00;100758.72;5636522;26;21391;-73
2024/04/25 01:03:13;;;;;;;4.75;1.40;;;;;;;6.90;100.00;100758.44;5634303;26;20336;-73
2024/04/25 01:05:45;;;;;;;4.05;1.13;;;;;;;6.83;100.00;100758.03;5634671;26;21457;-74
2024/04/25 01:08:17;;;;;;;4.65;1.50;;;;;;;6.75;100.00;100754.31;5641381;26;19999;-74
2024/04/25 01:10:50;;;;;;;7.60;1.65;;;;;;;6.79;100.00;100761.78;5635065;26;20042;-73
2024/04/25 01:13:22;;;;;;;3.88;1.45;;;;;;;6.74;100.00;100752.63;5639019;26;20059;-73
2024/04/25 01:15:55;;;;;;;5.13;2.13;;;;;;;6.71;100.00;100751.09;5636419;26;20489;-74
2024/04/25 01:18:26;;;;;;;4.53;1.17;;;;;;;6.80;100.00;100749.59;5640980;26;20508;-73
2024/04/25 01:20:58;;;;;;;5.00;1.23;;;;;;;6.73;100.00;100735.34;5639445;26;20000;-74
2024/04/25 01:23:34;;;;;;;6.63;1.30;;;;;;;6.79;100.00;100742.75;5633999;26;20013;-73
2024/04/25 01:26:08;;;;;;;4.03;1.17;;;;;;;6.76;100.00;100738.56;5631861;26;20024;-74
2024/04/25 01:28:40;;;;;;;;;;;;;;;7.48;100.00;100741.19;5633261;26;20003;-74
2024/04/25 01:31:13;;;;;;;3.35;1.33;;;;;;;6.82;100.00;100732.94;5630329;26;20574;-73
2024/04/25 01:33:45;;;;;;;5.00;1.33;;;;;;;6.85;100.00;100739.69;5641149;26;20004;-74
2024/04/25 01:36:18;;;;;;;3.80;1.20;;;;;;;6.89;100.00;100732.50;5628854;26;20365;-74
2024/04/25 01:38:50;;;;;;;3.70;1.00;;;;;;;6.88;100.00;100726.44;5633596;26;21149;-73
2024/04/25 01:41:22;;;;;;;3.83;1.10;;;;;;;6.85;100.00;100734.47;5639427;26;20473;-74
2024/04/25 01:43:54;;;;;;;7.55;1.88;;;;;;;6.87;100.00;100713.56;5633530;26;20369;-74
2024/04/25 01:46:26;;;;;;;4.65;1.35;;;;;;;6.83;100.00;100726.78;5630761;26;20003;-74
2024/04/25 01:49:01;;;;;;;9.77;2.03;;;;;;;6.89;100.00;100716.88;5626834;26;20143;-74
2024/04/25 01:51:33;;;;;;;6.40;2.00;;;;;;;6.84;100.00;100719.81;5630761;26;20003;-73
2024/04/25 01:54:05;;;;;;;4.43;1.35;;;;;;;6.80;100.00;100715.75;5618910;26;20018;-73
2024/04/25 01:56:37;;;;;;;3.17;1.23;;;;;;;6.84;100.00;100714.59;5626461;26;20011;-73
2024/04/25 01:59:09;;;;;;;5.13;1.60;;;;;;;6.71;100.00;100708.59;5638337;26;20031;-73
2024/04/25 02:01:41;;;;;;;5.55;1.48;;;;;;;6.75;100.00;100710.88;5640000;26;20050;-74
2024/04/25 02:04:13;;;;;;;6.15;1.65;;;;;;;6.76;100.00;100709.09;5635858;26;20364;-73
2024/04/25 02:06:45;;;;;;;4.35;1.30;;;;;;;6.73;100.00;100704.09;5632661;26;20004;-74
2024/04/25 02:09:16;;;;;;;3.25;1.23;;;;;;;6.73;100.00;100699.72;5638601;26;19999;-73
2024/04/25 02:11:48;;;;;;;3.58;1.00;;;;;;;6.68;100.00;100703.63;5636683;26;20003;-74
2024/04/25 02:14:20;;;;;;;6.50;1.38;;;;;;;6.67;100.00;100702.78;5635239;26;20008;-74
2024/04/25 02:16:52;;;;;;;2.72;0.82;;;;;;;6.64;100.00;100692.59;5637892;26;20448;-73
2024/04/25 02:19:24;;;;;;;3.67;1.33;;;;;;;6.68;100.00;100698.41;5634522;26;20014;-73
2024/04/25 02:27:38;;;;;;;5.03;1.30;;;;;;;6.64;100.00;100707.38;5622179;26;20030;-73
2024/04/25 02:30:10;;;;;;;5.40;1.30;;;;;;;6.57;100.00;100694.78;5635720;26;19999;-74
2024/04/25 02:32:42;;;;;;;3.63;0.90;;;;;;;6.62;100.00;100699.66;5638775;26;20021;-72
2024/04/25 02:35:14;;;;;;;3.22;1.00;;;;;;;6.61;100.00;100697.19;5638717;26;19999;-73
2024/04/25 02:37:46;;;;;;;5.10;1.25;;;;;;;6.56;100.00;100698.34;5630433;26;21015;-74
2024/04/25 02:40:18;;;;;;;4.38;0.90;;;;;;;6.58;100.00;100691.22;5634786;26;20011;-73
2024/04/25 02:42:50;;;;;;;3.00;1.17;;;;;;;6.60;100.00;100683.31;5639819;26;20027;-74
2024/04/25 02:45:22;;;;;;;4.68;1.38;;;;;;;6.61;100.00;100692.78;5638571;26;20767;-74
2024/04/25 02:47:54;;;;;;;4.35;1.15;;;;;;;6.55;100.00;100686.25;5630691;26;20015;-73
2024/04/25 02:50:26;;;;;;;5.60;1.70;;;;;;;6.62;100.00;100686.63;5639650;26;20013;-73
2024/04/25 02:52:58;;;;;;;3.95;1.08;;;;;;;6.54;100.00;100675.94;5637978;26;20028;-74
2024/04/25 02:55:32;;;;;;;4.38;1.27;;;;;;;6.65;100.00;100686.44;5640622;26;20043;-73
2024/04/25 02:58:04;;;;;;;3.75;1.30;;;;;;;6.64;100.00;100682.16;5638205;26;20004;-73
2024/04/25 03:00:35;;;;;;;2.65;1.05;;;;;;;6.67;100.00;100678.53;5635939;26;20018;-73
2024/04/25 03:03:07;;;;;;;4.25;1.10;;;;;;;6.64;100.00;100676.13;5644080;26;20442;-74
2024/04/25 03:05:43;;;;;;;4.07;1.60;;;;;;;6.61;100.00;100669.38;5639728;26;20079;-74
2024/04/25 03:08:15;;;;;;;5.30;1.40;;;;;;;6.61;100.00;100673.75;5632194;26;20151;-73
2024/04/25 03:10:46;;;;;;;2.88;1.33;;;;;;;6.61;100.00;100681.56;5638372;26;20011;-73
2024/04/25 03:13:18;;;;;;;5.35;1.40;;;;;;;6.61;100.00;100678.94;5634606;26;20003;-74
2024/04/25 03:15:50;;;;;;;3.95;1.30;;;;;;;6.62;100.00;100671.03;5636689;26;20349;-73
2024/04/25 03:18:22;;;;;;;4.32;1.48;;;;;;;6.65;100.00;100675.19;5627572;26;20022;-73
2024/04/25 03:21:01;;;;;;;3.20;1.08;;;;;;;6.76;100.00;100667.44;5631839;26;20371;-73
2024/04/25 03:23:40;;;;;;;3.38;1.35;;;;;;;6.72;100.00;100663.41;5636895;26;20046;-73
2024/04/25 03:26:12;;;;;;;4.82;1.25;;;;;;;6.61;100.00;100668.53;5629962;26;20347;-73
2024/04/25 03:28:43;;;;;;;2.83;1.45;;;;;;;6.62;100.00;100668.41;5634669;26;20010;-74
2024/04/25 03:31:15;;;;;;;4.10;1.38;;;;;;;6.63;100.00;100664.91;5633234;26;19999;-73
2024/04/25 03:33:47;;;;;;;5.32;1.60;;;;;;;6.64;100.00;100666.56;5640890;26;20007;-73
2024/04/25 03:36:19;;;;;;;4.13;1.73;;;;;;;6.64;100.00;100673.53;5632031;26;21415;-73
2024/04/25 03:38:51;;;;;;;5.28;2.00;;;;;;;6.64;100.00;100666.56;5629607;26;20557;-74
2024/04/25 03:41:23;;;;;;;4.15;1.92;;;;;;;6.65;100.00;100662.16;5639799;26;20012;-72
2024/04/25 03:43:56;;;;;;;5.43;2.22;;;;;;;6.69;100.00;100664.44;5630092;26;20011;-73
2024/04/25 03:46:27;;;;;;;4.97;2.80;;;;;;;6.70;100.00;100654.84;5639692;26;20029;-73
2024/04/25 03:48:59;;;;;;;7.40;2.88;;;;;;;6.64;100.00;100660.53;5635031;26;19999;-73
2024/04/25 03:51:31;;;;;;;5.10;2.80;;;;;;;6.65;100.00;100659.56;5638334;26;20018;-73
2024/04/25 03:54:03;;;;;;;6.05;3.20;;;;;;;6.67;100.00;100650.72;5640451;26;20198;-74
2024/04/25 03:56:35;;;;;;;7.38;3.83;;;;;;;6.65;100.00;100644.78;5640543;26;20015;-73
2024/04/25 03:59:07;;;;;;;5.90;3.63;;;;;;;6.72;100.00;100648.59;5635170;26;20003;-74
2024/04/25 04:01:39;;;;;;;8.98;3.95;;;;;;;6.73;100.00;100654.63;5633026;26;20023;-73
2024/04/25 04:04:11;;;;;;;8.90;3.90;;;;;;;6.78;100.00;100657.75;5633287;26;20006;-73
2024/04/25 04:06:43;;;;;;;7.07;3.83;;;;;;;6.76;100.00;100647.44;5631740;26;20454;-73
2024/04/25 04:09:15;;;;;;;9.18;4.00;;;;;;;6.77;100.00;100643.88;5629593;26;20018;-74
2024/04/25 04:11:47;;;;;;;6.22;3.33;;;;;;;6.78;100.00;100635.16;5639227;26;20045;-73
2024/04/25 04:14:18;;;;;;;7.00;3.42;;;;;;;6.82;100.00;100641.81;5636959;26;20378;-74
2024/04/25 04:16:56;;;;;;;6.32;3.60;;;;;;;6.81;100.00;100634.09;5634355;26;20443;-73
2024/04/25 04:19:28;;;;;;;6.50;3.60;;;;;;;6.85;100.00;100629.50;5638055;26;19999;-73
2024/04/25 04:22:00;;;;;;;5.25;3.05;;;;;;;6.90;100.00;100630.84;5638411;26;20705;-73
2024/04/25 04:24:32;;;;;;;6.90;3.25;;;;;;;6.94;100.00;100626.22;5632210;26;20007;-74
2024/04/25 04:27:04;;;;;;;6.18;3.08;;;;;;;6.93;100.00;100630.63;5633019;26;20045;-73
2024/04/25 04:29:37;;;;;;;4.68;3.00;;;;;;;6.93;100.00;100624.56;5629311;26;20007;-73
2024/04/25 04:32:09;;;;;;;3.72;2.78;;;;;;;6.98;100.00;100628.50;5634721;26;20356;-73
2024/04/25 04:34:44;;;;;;;5.22;3.20;;;;;;;6.98;100.00;100622.47;5635625;26;20023;-74
2024/04/25 04:37:16;;;;;;;5.25;2.80;;;;;;;6.95;100.00;100615.69;5628833;26;20010;-73
2024/04/25 04:39:48;;;;;;;5.20;2.63;;;;;;;6.96;100.00;100619.94;5634789;26;20003;-73
2024/04/25 04:42:20;;;;;;;2.95;2.50;;;;;;;7.04;100.00;100625.41;5633963;26;20017;-73
2024/04/25 04:44:52;;;;;;;4.25;2.55;;;;;;;6.98;100.00;100619.84;5637572;26;20008;-74
2024/04/25 04:47:24;;;;;;;4.93;2.80;;;;;;;6.99;100.00;100624.94;5639201;26;20015;-73
2024/04/25 04:49:56;;;;;;;5.05;3.03;;;;;;;7.00;100.00;100625.75;5638514;26;20061;-73
2024/04/25 04:52:31;;;;;;;5.00;3.08;;;;;;;6.96;100.00;100619.94;5638436;26;20055;-73
2024/04/25 04:55:03;;;;;;;7.65;3.22;;;;;;;6.96;100.00;100625.16;5643489;26;20020;-74
2024/04/25 04:57:35;;;;;;;6.03;3.63;;;;;;;6.94;100.00;100628.84;5634227;26;20007;-74
2024/04/25 05:00:08;;;;;;;5.70;3.78;;;;;;;6.88;100.00;100632.72;5636868;26;20017;-73
2024/04/25 05:02:40;;;;;;;6.38;4.15;;;;;;;6.89;100.00;100629.16;5635578;26;20004;-73
2024/04/25 05:05:12;;;;;;;7.22;4.10;;;;;;;6.83;100.00;100627.84;5636631;26;20004;-73
2024/04/25 05:07:44;;;;;;;8.68;4.95;;;;;;;6.87;100.00;100630.22;5637886;26;20453;-74
2024/04/25 05:10:16;;;;;;;6.53;4.68;;;;;;;6.89;100.00;100630.94;5638403;26;20000;-74
2024/04/25 05:12:48;;;;;;;7.32;4.85;;;;;;;6.89;100.00;100626.53;5640647;26;20022;-74
2024/04/25 05:15:20;;;;;;;6.50;4.32;;;;;;;6.91;100.00;100624.69;5640903;26;20050;-73
2024/04/25 05:17:53;;;;;;;6.88;4.68;;;;;;;6.91;100.00;100626.44;5635935;26;20005;-74
2024/04/25 05:20:24;;;;;;;6.45;4.68;;;;;;;6.99;100.00;100624.13;5632100;26;20441;-72
2024/04/25 05:22:56;;;;;;;9.82;5.75;;;;;;;6.92;100.00;100617.69;5636858;26;20015;-72
2024/04/25 05:25:29;;;;;;;9.35;5.45;;;;;;;6.96;100.00;100619.94;5635227;26;20081;-72
2024/04/25 05:28:01;;;;;;;8.57;5.63;;;;;;;6.95;100.00;100618.28;5635412;26;20427;-72
2024/04/25 05:30:33;;;;;;;7.93;5.25;;;;;;;6.93;100.00;100621.94;5642187;26;20009;-74
2024/04/25 05:33:05;;;;;;;7.20;5.20;;;;;;;7.00;100.00;100625.75;5635818;26;20477;-74
2024/04/25 05:35:37;;;;;;;8.30;5.25;;;;;;;7.00;100.00;100626.59;5631590;26;20030;-75
2024/04/25 05:38:09;;;;;;;7.93;5.72;;;;;;;6.99;100.00;100627.53;5638945;26;20002;-74
2024/04/25 05:40:41;;;;;;;7.15;5.30;;;;;;;7.00;100.00;100620.56;5624959;26;20509;-74
2024/04/25 05:43:13;;;;;;;8.07;5.50;;;;;;;7.03;100.00;100625.53;5630003;26;20143;-74
2024/04/25 05:45:45;;;;;;;10.73;5.43;;;;;;;7.08;100.00;100626.03;5633378;26;20007;-72
2024/04/25 05:48:17;;;;;;;8.32;5.40;;;;;;;6.98;100.00;100606.84;5641329;26;20354;-75
2024/04/25 05:50:49;;;;;;;7.78;4.88;;;;;;;7.09;100.00;100622.50;5636390;26;20039;-74
2024/04/25 05:53:21;;;;;;;10.23;5.28;;;;;;;7.11;100.00;100623.19;5637675;26;20011;-72
2024/04/25 05:55:53;;;;;;;7.78;5.00;;;;;;;7.18;100.00;100626.19;5633684;26;20008;-74
2024/04/25 05:58:25;;;;;;;8.88;5.03;;;;;;;7.20;100.00;100626.94;5632010;26;20090;-74
2024/04/25 06:00:57;;;;;;;8.20;5.28;;;;;;;7.21;100.00;100625.97;5631752;26;20027;-72
2024/04/25 06:03:29;;;;;;;8.43;5.00;;;;;;;7.25;100.00;100630.84;5629929;26;20130;-74
2024/04/25 06:06:01;;;;;;;8.68;4.80;;;;;;;7.26;100.00;100623.84;5636134;26;20010;-73
2024/04/25 06:08:33;;;;;;;7.13;4.93;;;;;;;7.33;100.00;100622.44;5626459;26;20041;-73
2024/04/25 06:11:04;;;;;;;6.13;4.38;;;;;;;7.42;100.00;100628.75;5627920;26;20016;-74
2024/04/25 06:13:36;;;;;;;9.15;4.88;;;;;;;7.44;100.00;100616.44;5639814;26;20113;-73
2024/04/25 06:16:09;;;;;;;8.63;4.35;;;;;;;7.54;100.00;100620.03;5622211;26;20018;-74
2024/04/25 06:18:45;;;;;;;7.60;4.63;;;;;;;7.66;100.00;100618.25;5626548;26;20009;-72
2024/04/25 06:21:17;;;;;;;6.05;3.97;;;;;;;7.62;100.00;100612.44;5623563;26;20018;-74
2024/04/25 06:23:49;;;;;;;6.00;4.03;;;;;;;7.67;100.00;100617.31;5632736;26;20015;-73
2024/04/25 06:26:21;;;;;;;8.25;3.60;;;;;;;7.70;100.00;100619.69;5625849;26;20018;-74
2024/04/25 06:28:53;;;;;;;7.22;4.10;;;;;;;7.69;100.00;100607.56;5627467;26;20004;-74
2024/04/25 06:31:26;;;;;;;6.65;4.10;;;;;;;7.74;100.00;100616.72;5633553;26;20080;-73
2024/04/25 06:34:02;;;;;;;5.73;3.60;;;;;;;7.77;100.00;100616.47;5630784;26;20566;-73
2024/04/25 06:36:35;;;;;;;8.35;4.78;;;;;;;7.75;100.00;100626.19;5630956;26;20275;-74
2024/04/25 06:39:08;;;;;;;7.45;3.72;;;;;;;7.85;100.00;100612.47;5630971;26;20013;-73
2024/04/25 06:41:41;;;;;;;6.18;3.83;;;;;;;7.85;100.00;100607.25;5632040;26;20015;-73
2024/04/25 06:44:13;;;;;;;9.05;3.78;;;;;;;7.95;100.00;100613.38;5639756;26;20373;-74
2024/04/25 06:46:45;;;;;;;5.60;3.75;;;;;;;7.93;100.00;100605.69;5630384;26;20003;-73
2024/04/25 06:49:17;;;;;;;7.18;3.78;;;;;;;7.97;100.00;100606.28;5636090;26;20835;-73
2024/04/25 06:51:49;;;;;;;7.60;4.30;;;;;;;8.01;100.00;100599.88;5632496;26;19999;-74
2024/04/25 06:54:21;;;;;;;8.30;3.97;;;;;;;8.02;100.00;100604.97;5632124;26;20087;-74
2024/04/25 06:56:53;;;;;;;7.90;3.75;;;;;;;7.98;100.00;100597.50;5627049;26;20015;-74
2024/04/25 06:59:25;;;;;;;9.45;4.03;;;;;;;8.02;100.00;100588.50;5632781;26;20004;-74
2024/04/25 07:02:02;;;;;;;7.10;3.33;;;;;;;8.01;100.00;100595.50;5632264;26;20021;-73
2024/04/25 07:04:34;;;;;;;7.22;3.70;;;;;;;8.05;100.00;100599.50;5636002;26;20039;-74
2024/04/25 07:07:06;;;;;;;4.43;3.47;;;;;;;8.17;100.00;100586.47;5632052;26;20109;-73
2024/04/25 07:09:38;;;;;;;6.85;3.95;;;;;;;8.22;100.00;100585.16;5635971;26;20010;-73
2024/04/25 07:12:10;;;;;;;7.15;3.90;;;;;;;8.25;100.00;100590.13;5630960;26;20060;-74
2024/04/25 07:14:42;;;;;;;5.72;3.35;;;;;;;8.31;100.00;100590.59;5635792;26;20015;-74
2024/04/25 07:17:13;;;;;;;4.95;3.13;;;;;;;8.31;100.00;100583.59;5629809;26;20024;-74
2024/04/25 07:19:46;;;;;;;4.18;2.47;;;;;;;8.40;100.00;100579.44;5630689;26;20010;-74
2024/04/25 07:22:17;;;;;;;6.20;2.83;;;;;;;8.41;100.00;100581.94;5629495;26;20031;-74
2024/04/25 07:24:49;;;;;;;5.80;2.40;;;;;;;8.52;100.00;100581.91;5645184;26;20071;-74
2024/04/25 07:27:21;;;;;;;5.35;2.58;;;;;;;8.50;100.00;100580.38;5641821;26;20061;-74
2024/04/25 07:29:54;;;;;;;6.40;2.80;;;;;;;8.50;100.00;100583.81;5636552;26;20047;-73
2024/04/25 07:32:26;;;;;;;5.67;2.57;;;;;;;8.51;100.00;100582.84;5636365;26;21434;-74
2024/04/25 07:34:58;;;;;;;5.53;2.92;;;;;;;8.46;100.00;100578.97;5645642;26;20003;-74
2024/04/25 07:37:33;;;;;;;3.78;2.60;;;;;;;8.48;100.00;100593.53;5640535;26;20079;-73
2024/04/25 07:40:07;;;;;;;6.20;3.08;;;;;;;8.54;100.00;100594.84;5639409;26;20018;-74
2024/04/25 07:42:39;;;;;;;7.60;3.80;;;;;;;8.55;100.00;100598.28;5645565;26;20032;-74
2024/04/25 07:45:12;;;;;;;5.80;4.30;;;;;;;8.61;100.00;100584.75;5636519;26;20055;-73
2024/04/25 07:47:45;;;;;;;7.72;4.40;;;;;;;8.64;100.00;100579.28;5636659;26;20523;-74
2024/04/25 07:50:17;;;;;;;7.65;4.57;;;;;;;8.66;100.00;100587.78;5643412;26;20026;-74
2024/04/25 07:52:49;;;;;;;7.38;4.30;;;;;;;8.67;100.00;100584.22;5634412;26;20708;-74
2024/04/25 07:55:21;;;;;;;6.88;4.65;;;;;;;8.73;100.00;100581.13;5639707;26;20024;-73
2024/04/25 07:57:53;;;;;;;6.50;4.47;;;;;;;8.76;100.00;100578.28;5635136;26;20006;-74
2024/04/25 08:00:25;;;;;;;7.60;4.82;;;;;;;8.95;100.00;100586.25;5633737;26;20471;-74
2024/04/25 08:02:57;;;;;;;6.32;4.57;;;;;;;8.98;100.00;100582.56;5637998;26;20004;-73
2024/04/25 08:05:29;;;;;;;8.73;4.53;;;;;;;9.08;100.00;100575.63;5640386;26;20027;-73
2024/04/25 08:08:01;;;;;;;7.78;4.82;;;;;;;9.16;100.00;100590.66;5640954;26;20008;-73
2024/04/25 08:10:34;;;;;;;7.22;5.22;;;;;;;9.18;100.00;100584.34;5648194;26;20007;-73
2024/04/25 08:13:07;;;;;;;6.60;4.70;;;;;;;9.29;100.00;100580.03;5650441;26;20043;-74
2024/04/25 08:15:38;;;;;;;7.78;4.80;;;;;;;9.32;100.00;100583.22;5650324;26;20747;-74
2024/04/25 08:18:10;;;;;;;6.55;4.50;;;;;;;9.45;100.00;100583.00;5643172;26;20422;-74
2024/04/25 08:20:42;;;;;;;8.52;4.50;;;;;;;9.43;100.00;100572.69;5644430;26;20333;-73
2024/04/25 08:23:15;;;;;;;7.18;3.80;;;;;;;9.48;100.00;100574.91;5645632;26;20021;-73
2024/04/25 08:25:46;;;;;;;6.65;3.45;;;;;;;9.54;100.00;100568.31;5640674;26;20036;-73
2024/04/25 08:28:18;;;;;;;6.32;3.00;;;;;;;9.48;100.00;100565.28;5641694;26;20015;-74
2024/04/25 08:30:50;;;;;;;5.97;2.80;;;;;;;9.62;100.00;100571.09;5642396;26;19999;-73
2024/04/25 08:33:22;;;;;;;5.72;2.72;;;;;;;9.70;100.00;100563.47;5642653;26;20477;-74
2024/04/25 08:35:54;;;;;;;6.53;3.45;;;;;;;9.84;100.00;100563.06;5643156;26;20006;-74
2024/04/25 08:38:29;;;;;;;4.82;2.90;;;;;;;9.90;100.00;100552.09;5638617;26;20014;-74
2024/04/25 08:41:03;;;;;;;9.45;3.20;;;;;;;10.09;100.00;100551.31;5641633;26;20003;-73
2024/04/25 08:43:40;;;;;;;4.40;2.58;;;;;;;10.32;100.00;100558.97;5639713;26;20056;-74
2024/04/25 08:46:16;;;;;;;4.05;2.20;;;;;;;10.35;100.00;100554.31;5640439;26;20346;-74
2024/04/25 08:48:49;;;;;;;6.05;2.75;;;;;;;10.50;100.00;100557.34;5643882;26;20054;-74
2024/04/25 08:51:25;;;;;;;5.65;2.65;;;;;;;10.63;96.02;100560.50;5640805;26;20031;-74
2024/04/25 08:54:02;;;;;;;4.57;2.30;;;;;;;10.68;93.20;100554.84;5641600;26;20031;-74
2024/04/25 08:56:34;;;;;;;5.60;2.38;;;;;;;10.64;84.17;100556.94;5655537;26;20063;-73
2024/04/25 08:59:06;;;;;;;3.20;1.52;;;;;;;10.67;82.68;100555.84;5640936;26;20085;-74
2024/04/25 09:01:42;;;;;;;4.78;1.60;;;;;;;10.69;78.96;100553.91;5643169;26;19999;-74
2024/04/25 09:04:19;;;;;;;5.95;1.65;;;;;;;10.68;81.36;100549.63;5643023;26;20015;-74
2024/04/25 09:06:50;;;;;;;5.10;1.98;;;;;;;10.68;80.93;100552.25;5636551;26;20747;-74
2024/04/25 09:09:24;;;;;;;3.55;1.65;;;;;;;10.71;80.81;100547.56;5642706;26;20015;-74
2024/04/25 09:11:57;;;;;;;4.18;1.70;;;;;;;10.63;80.81;100530.88;5640093;26;20579;-74
2024/04/25 09:14:28;;;;;;;6.05;1.98;;;;;;;10.74;78.80;100543.84;5624926;26;20471;-74
2024/04/25 09:17:01;;;;;;;6.47;2.47;;;;;;;10.83;87.14;100543.00;5630386;26;20007;-74
2024/04/25 09:19:32;;;;;;;3.88;2.40;;;;;;;10.88;85.97;100532.94;5635940;26;20063;-74
2024/04/25 09:22:04;;;;;;;9.48;3.10;;;;;;;10.91;84.49;100535.28;5635638;26;20007;-74
2024/04/25 09:24:36;;;;;;;3.88;2.97;;;;;;;10.92;82.10;100542.19;5644302;26;20044;-74
2024/04/25 09:27:08;;;;;;;5.72;3.10;;;;;;;11.01;83.20;100532.63;5633861;26;20022;-74
2024/04/25 09:29:40;;;;;;;6.63;3.55;;;;;;;11.02;76.65;100530.84;5637615;26;20027;-74
2024/04/25 09:32:16;;;;;;;4.97;3.35;;;;;;;11.35;83.43;100525.09;5637502;26;20030;-74
2024/04/25 09:34:49;;;;;;;4.30;2.83;;;;;;;11.39;85.50;100523.84;5664399;26;20098;-74
2024/04/25 09:37:21;;;;;;;5.85;3.20;;;;;;;11.49;78.06;100525.63;5638505;26;20508;-74
2024/04/25 09:39:53;;;;;;;6.32;3.25;;;;;;;11.50;79.06;100524.66;5642990;26;20034;-74
2024/04/25 09:42:26;;;;;;;6.03;3.60;;;;;;;11.50;75.25;100517.59;5637615;26;20042;-74
2024/04/25 09:45:00;;;;;;;5.72;2.83;;;;;;;11.53;73.47;100516.50;5631663;26;20047;-74
2024/04/25 09:47:35;;;;;;;8.02;3.30;;;;;;;11.56;77.82;100516.22;5644152;26;20481;-74
2024/04/25 09:50:15;;;;;;;6.95;4.05;;;;;;;11.73;74.86;100506.72;5642693;26;20059;-74
2024/04/25 09:52:55;;;;;;;7.18;4.15;;;;;;;11.83;76.93;100504.91;5639578;26;20374;-74
2024/04/25 09:55:39;;;;;;;7.72;3.03;;;;;;;11.74;70.93;100501.31;5639027;26;20317;-74
2024/04/25 09:58:20;;;;;;;4.65;2.90;;;;;;;11.66;67.99;100501.22;5634868;26;20038;-73
2024/04/25 10:00:53;;;;;;;6.72;3.08;;;;;;;11.60;68.13;100505.28;5640814;26;20027;-73
2024/04/25 10:03:26;;;;;;;5.88;3.40;;;;;;;11.49;72.12;100502.00;5633020;26;20029;-74
2024/04/25 10:05:59;;;;;;;6.32;3.70;;;;;;;11.42;72.98;100501.75;5628652;26;20003;-74
2024/04/25 10:08:31;;;;;;;6.50;3.38;;;;;;;11.28;73.40;100500.41;5637277;26;20442;-73
2024/04/25 10:11:07;;;;;;;5.45;2.90;;;;;;;11.30;73.92;100498.50;5626310;26;20009;-74
2024/04/25 10:13:49;;;;;;;5.25;3.20;;;;;;;11.38;74.88;100500.41;5640197;26;20504;-74
2024/04/25 10:16:22;;;;;;;6.07;3.20;;;;;;;11.25;78.17;100479.75;5635258;26;20002;-75
2024/04/25 10:18:54;;;;;;;6.15;3.00;;;;;;;11.42;73.73;100492.09;5622818;26;20109;-74
2024/04/25 10:21:26;;;;;;;7.78;2.72;;;;;;;11.40;69.20;100478.31;5637028;26;20050;-74
2024/04/25 10:24:07;;;;;;;6.07;2.50;;;;;;;11.58;71.71;100474.91;5641651;26;20532;-74
2024/04/25 10:26:45;;;;;;;5.45;2.33;;;;;;;11.70;72.72;100478.97;5630450;26;20017;-75
2024/04/25 10:29:17;;;;;;;5.82;2.63;;;;;;;11.72;73.31;100463.91;5635518;26;20037;-75
2024/04/25 10:31:49;;;;;;;4.65;2.38;;;;;;;11.87;70.56;100477.41;5636176;26;20013;-74
2024/04/25 10:34:21;;;;;;;5.38;2.35;;;;;;;11.73;66.10;100467.38;5633903;26;20000;-74
2024/04/25 10:36:53;;;;;;;6.95;2.65;;;;;;;11.63;67.32;100472.66;5632047;26;20015;-75
2024/04/25 10:39:25;;;;;;;4.55;1.88;;;;;;;11.40;68.77;100482.69;5632987;26;20011;-74
2024/04/25 10:41:57;;;;;;;5.47;1.90;;;;;;;11.11;66.88;100488.06;5634556;26;19999;-75
2024/04/25 10:44:29;;;;;;;4.78;1.70;;;;;;;10.87;72.08;100480.66;5635244;26;20345;-74
2024/04/25 10:47:01;;;;;;;5.55;2.10;;;;;;;10.73;74.63;100486.34;5635065;26;20046;-74
2024/04/25 10:49:34;;;;;;;4.55;1.80;;;;;;;10.66;70.72;100488.69;5631784;26;20010;-75
2024/04/25 10:52:06;;;;;;;3.47;1.80;;;;;;;10.55;65.82;100480.97;5628068;26;20015;-74
2024/04/25 10:54:39;;;;;;;3.95;1.90;;;;;;;10.64;71.91;100475.72;5632119;26;20036;-74
2024/04/25 10:57:14;;;;;;;3.80;2.10;;;;;;;10.70;71.44;100472.53;5631413;26;20046;-74
2024/04/25 10:59:46;;;;;;;5.55;2.28;;;;;;;10.77;73.69;100470.19;5643595;26;20388;-74
2024/04/25 11:02:17;;;;;;;4.50;1.70;;;;;;;10.90;71.80;100469.88;5637283;26;20051;-74
2024/04/25 11:04:49;;;;;;;5.65;2.35;;;;;;;11.02;70.10;100470.53;5634832;26;20015;-74
2024/04/25 11:07:21;;;;;;;5.53;2.28;;;;;;;11.23;72.63;100470.34;5645356;26;20444;-74
2024/04/25 11:09:54;;;;;;;7.78;2.40;;;;;;;11.24;69.99;100456.28;5647039;26;20003;-75
2024/04/25 11:12:26;;;;;;;4.88;2.13;;;;;;;11.30;64.54;100456.53;5634311;26;20018;-74
2024/04/25 11:14:59;;;;;;;8.80;2.72;;;;;;;11.31;64.79;100458.16;5636698;26;20445;-74
2024/04/25 11:17:31;;;;;;;7.13;2.33;;;;;;;11.46;63.21;100450.66;5644370;26;20009;-75
2024/04/25 11:20:03;;;;;;;6.60;2.08;;;;;;;11.44;63.10;100447.38;5644850;26;20462;-74
2024/04/25 11:22:35;;;;;;;4.82;2.40;;;;;;;11.55;63.03;100439.28;5637224;26;20003;-75
2024/04/25 11:25:18;;;;;;;6.75;2.38;;;;;;;11.93;62.86;100443.53;5642084;26;20027;-75
2024/04/25 11:27:50;;;;;;;6.60;2.90;;;;;;;12.00;62.95;100442.91;5640807;26;20032;-74
2024/04/25 11:30:24;;;;;;;5.57;2.45;;;;;;;11.89;58.05;100418.53;5637320;26;20019;-75
2024/04/25 11:33:01;;;;;;;4.25;2.45;;;;;;;12.04;55.73;100429.31;5640303;26;20014;-75
2024/04/25 11:35:33;;;;;;;4.38;2.03;;;;;;;11.76;53.36;100439.03;5639573;26;20031;-75
2024/04/25 11:38:11;;;;;;;4.43;2.15;;;;;;;11.68;51.16;100442.41;5645060;26;20008;-74
2024/04/25 11:40:45;;;;;;;5.13;2.35;;;;;;;11.53;54.39;100433.38;5637775;26;20043;-75
2024/04/25 11:43:18;;;;;;;3.53;1.60;;;;;;;11.50;52.15;100440.69;5633412;26;20021;-74
2024/04/25 11:45:51;;;;;;;;;;;;;;;12.23;51.33;100435.41;5639887;26;20591;-75
2024/04/25 11:48:25;;;;;;;5.53;1.88;;;;;;;11.46;52.38;100434.91;5645944;26;19953;-75
2024/04/25 11:50:57;;;;;;;4.57;1.63;;;;;;;11.44;50.56;100427.22;5638896;26;20017;-74
2024/04/25 11:53:29;;;;;;;4.93;1.60;;;;;;;11.47;48.18;100430.50;5636080;26;20004;-75
2024/04/25 11:56:01;;;;;;;5.97;1.60;;;;;;;11.47;49.03;100425.25;5631020;26;21477;-75